sensor_id;sensor_type;location;lat;lon;timestamp;temperature;humidity
18173;DHT22;9211;48.818;9.312;2023-11-21T00:02:21;10.50;99.90
18173;DHT22;9211;48.818;9.312;2023-11-21T00:04:49;10.50;99.90
18173;DHT22;9211;48.818;9.312;2023-11-21T00:07:16;10.50;99.90
18173;DHT22;9211;48.818;9.312;2023-11-21T00:09:43;10.50;99.90
18173;DHT22;9211;48.818;9.312;2023-11-21T00:12:09;10.60;99.90
18173;DHT22;9211;48.818;9.312;2023-11-21T00:14:36;10.60;99.90
18173;DHT22;9211;48.818;9.312;2023-11-21T00:17:05;10.70;99.90
18173;DHT22;9211;48.818;9.312;2023-11-21T00:19:32;10.60;99.90
18173;DHT22;9211;48.818;9.312;2023-11-21T00:22:00;10.60;99.90
18173;DHT22;9211;48.818;9.312;2023-11-21T00:24:27;10.50;99.90
18173;DHT22;9211;48.818;9.312;2023-11-21T00:26:54;10.50;99.90
18173;DHT22;9211;48.818;9.312;2023-11-21T00:29:21;10.50;99.90
18173;DHT22;9211;48.818;9.312;2023-11-21T00:31:47;10.40;99.90
18173;DHT22;9211;48.818;9.312;2023-11-21T00:34:16;10.40;99.90
18173;DHT22;9211;48.818;9.312;2023-11-21T00:36:43;10.40;99.90
18173;DHT22;9211;48.818;9.312;2023-11-21T00:39:10;10.40;99.90
18173;DHT22;9211;48.818;9.312;2023-11-21T00:41:37;10.40;99.90
18173;DHT22;9211;48.818;9.312;2023-11-21T00:44:04;10.50;99.90
18173;DHT22;9211;48.818;9.312;2023-11-21T00:46:32;10.50;99.90
18173;DHT22;9211;48.818;9.312;2023-11-21T00:48:59;10.60;99.90
18173;DHT22;9211;48.818;9.312;2023-11-21T00:51:27;10.60;99.90
18173;DHT22;9211;48.818;9.312;2023-11-21T00:53:54;10.60;99.90
18173;DHT22;9211;48.818;9.312;2023-11-21T00:56:21;10.60;99.90
18173;DHT22;9211;48.818;9.312;2023-11-21T00:58:48;10.70;99.90
18173;DHT22;9211;48.818;9.312;2023-11-21T01:01:15;10.70;99.90
18173;DHT22;9211;48.818;9.312;2023-11-21T01:03:42;10.80;99.90
18173;DHT22;9211;48.818;9.312;2023-11-21T01:06:09;10.80;99.90
18173;DHT22;9211;48.818;9.312;2023-11-21T01:08:38;10.60;99.90
18173;DHT22;9211;48.818;9.312;2023-11-21T01:11:05;10.60;99.90
18173;DHT22;9211;48.818;9.312;2023-11-21T01:13:33;10.60;99.90
18173;DHT22;9211;48.818;9.312;2023-11-21T01:16:01;10.60;99.90
18173;DHT22;9211;48.818;9.312;2023-11-21T01:18:29;10.60;99.90
18173;DHT22;9211;48.818;9.312;2023-11-21T01:20:56;10.70;99.90
18173;DHT22;9211;48.818;9.312;2023-11-21T01:23:23;10.60;99.90
18173;DHT22;9211;48.818;9.312;2023-11-21T01:25:51;10.60;99.90
18173;DHT22;9211;48.818;9.312;2023-11-21T01:28:18;10.70;99.90
18173;DHT22;9211;48.818;9.312;2023-11-21T01:30:46;10.50;99.90
18173;DHT22;9211;48.818;9.312;2023-11-21T01:33:12;10.60;99.90
18173;DHT22;9211;48.818;9.312;2023-11-21T01:35:41;10.70;99.90
18173;DHT22;9211;48.818;9.312;2023-11-21T01:38:08;10.60;99.90
18173;DHT22;9211;48.818;9.312;2023-11-21T01:40:35;10.50;99.90
18173;DHT22;9211;48.818;9.312;2023-11-21T01:43:03;10.50;99.90
18173;DHT22;9211;48.818;9.312;2023-11-21T01:45:30;10.50;99.90
18173;DHT22;9211;48.818;9.312;2023-11-21T01:47:59;10.40;99.90
18173;DHT22;9211;48.818;9.312;2023-11-21T01:50:27;10.30;99.90
18173;DHT22;9211;48.818;9.312;2023-11-21T01:52:55;10.30;99.90
18173;DHT22;9211;48.818;9.312;2023-11-21T01:55:22;10.30;99.90
18173;DHT22;9211;48.818;9.312;2023-11-21T01:57:49;10.30;99.90
18173;DHT22;9211;48.818;9.312;2023-11-21T02:00:18;10.30;99.90
18173;DHT22;9211;48.818;9.312;2023-11-21T02:02:45;10.30;99.90
18173;DHT22;9211;48.818;9.312;2023-11-21T02:05:13;10.30;99.90
18173;DHT22;9211;48.818;9.312;2023-11-21T02:07:42;10.30;99.90
18173;DHT22;9211;48.818;9.312;2023-11-21T02:10:09;10.40;99.90
18173;DHT22;9211;48.818;9.312;2023-11-21T02:12:40;10.30;99.90
18173;DHT22;9211;48.818;9.312;2023-11-21T02:15:08;10.40;99.90
18173;DHT22;9211;48.818;9.312;2023-11-21T02:17:42;10.50;99.90
18173;DHT22;9211;48.818;9.312;2023-11-21T02:20:10;10.50;99.90
18173;DHT22;9211;48.818;9.312;2023-11-21T02:22:42;10.50;99.90
18173;DHT22;9211;48.818;9.312;2023-11-21T02:25:11;10.50;99.90
18173;DHT22;9211;48.818;9.312;2023-11-21T02:27:37;10.50;99.90
18173;DHT22;9211;48.818;9.312;2023-11-21T02:30:05;10.60;99.90
18173;DHT22;9211;48.818;9.312;2023-11-21T02:32:33;10.70;99.90
18173;DHT22;9211;48.818;9.312;2023-11-21T02:35:00;10.70;99.90
18173;DHT22;9211;48.818;9.312;2023-11-21T02:37:28;10.70;99.90
18173;DHT22;9211;48.818;9.312;2023-11-21T02:39:55;10.70;99.90
18173;DHT22;9211;48.818;9.312;2023-11-21T02:42:24;10.60;99.90
18173;DHT22;9211;48.818;9.312;2023-11-21T02:44:51;10.60;99.90
18173;DHT22;9211;48.818;9.312;2023-11-21T02:47:17;10.60;99.90
18173;DHT22;9211;48.818;9.312;2023-11-21T02:49:44;10.60;99.90
18173;DHT22;9211;48.818;9.312;2023-11-21T02:52:11;10.60;99.90
18173;DHT22;9211;48.818;9.312;2023-11-21T02:54:38;10.50;99.90
18173;DHT22;9211;48.818;9.312;2023-11-21T02:57:05;10.50;99.90
18173;DHT22;9211;48.818;9.312;2023-11-21T02:59:34;10.50;99.90
18173;DHT22;9211;48.818;9.312;2023-11-21T03:02:01;10.50;99.90
18173;DHT22;9211;48.818;9.312;2023-11-21T03:04:28;10.50;99.90
18173;DHT22;9211;48.818;9.312;2023-11-21T03:06:58;10.50;99.90
18173;DHT22;9211;48.818;9.312;2023-11-21T03:09:25;10.60;99.90
18173;DHT22;9211;48.818;9.312;2023-11-21T03:11:53;10.50;99.90
18173;DHT22;9211;48.818;9.312;2023-11-21T03:14:21;10.70;99.90
18173;DHT22;9211;48.818;9.312;2023-11-21T03:16:49;10.50;99.90
18173;DHT22;9211;48.818;9.312;2023-11-21T03:19:16;10.50;99.90
18173;DHT22;9211;48.818;9.312;2023-11-21T03:21:43;10.50;99.90
18173;DHT22;9211;48.818;9.312;2023-11-21T03:24:10;10.90;99.90
18173;DHT22;9211;48.818;9.312;2023-11-21T03:26:38;10.50;99.90
18173;DHT22;9211;48.818;9.312;2023-11-21T03:29:04;10.50;99.90
18173;DHT22;9211;48.818;9.312;2023-11-21T03:31:31;10.50;99.90
18173;DHT22;9211;48.818;9.312;2023-11-21T03:34:00;10.90;99.90
18173;DHT22;9211;48.818;9.312;2023-11-21T03:36:26;10.50;99.90
18173;DHT22;9211;48.818;9.312;2023-11-21T03:38:53;10.50;99.90
18173;DHT22;9211;48.818;9.312;2023-11-21T03:41:21;10.50;99.90
18173;DHT22;9211;48.818;9.312;2023-11-21T03:43:49;10.50;99.90
18173;DHT22;9211;48.818;9.312;2023-11-21T03:46:16;10.60;99.90
18173;DHT22;9211;48.818;9.312;2023-11-21T03:48:43;10.50;99.90
18173;DHT22;9211;48.818;9.312;2023-11-21T03:51:11;10.50;99.90
18173;DHT22;9211;48.818;9.312;2023-11-21T03:53:38;10.50;99.90
18173;DHT22;9211;48.818;9.312;2023-11-21T03:56:10;10.50;99.90
18173;DHT22;9211;48.818;9.312;2023-11-21T03:58:38;10.50;99.90
18173;DHT22;9211;48.818;9.312;2023-11-21T04:01:06;10.50;99.90
18173;DHT22;9211;48.818;9.312;2023-11-21T04:03:33;10.50;99.90
18173;DHT22;9211;48.818;9.312;2023-11-21T04:05:59;10.50;99.90
18173;DHT22;9211;48.818;9.312;2023-11-21T04:08:28;10.60;99.90
18173;DHT22;9211;48.818;9.312;2023-11-21T04:10:55;10.50;99.90
18173;DHT22;9211;48.818;9.312;2023-11-21T04:13:22;10.50;99.90
18173;DHT22;9211;48.818;9.312;2023-11-21T04:15:49;10.50;99.90
18173;DHT22;9211;48.818;9.312;2023-11-21T04:18:16;10.50;99.90
18173;DHT22;9211;48.818;9.312;2023-11-21T04:20:43;10.60;99.90
18173;DHT22;9211;48.818;9.312;2023-11-21T04:23:10;10.60;99.90
18173;DHT22;9211;48.818;9.312;2023-11-21T04:25:40;10.60;99.90
18173;DHT22;9211;48.818;9.312;2023-11-21T04:28:07;10.50;99.90
18173;DHT22;9211;48.818;9.312;2023-11-21T04:30:34;10.50;99.90
18173;DHT22;9211;48.818;9.312;2023-11-21T04:33:01;10.60;99.90
18173;DHT22;9211;48.818;9.312;2023-11-21T04:35:28;10.50;99.90
18173;DHT22;9211;48.818;9.312;2023-11-21T04:37:55;10.50;99.90
18173;DHT22;9211;48.818;9.312;2023-11-21T04:40:22;10.50;99.90
18173;DHT22;9211;48.818;9.312;2023-11-21T04:42:51;10.40;99.90
18173;DHT22;9211;48.818;9.312;2023-11-21T04:45:18;10.40;99.90
18173;DHT22;9211;48.818;9.312;2023-11-21T04:47:44;10.40;99.90
18173;DHT22;9211;48.818;9.312;2023-11-21T04:50:11;10.40;99.90
18173;DHT22;9211;48.818;9.312;2023-11-21T04:52:38;10.30;99.90
18173;DHT22;9211;48.818;9.312;2023-11-21T04:55:06;10.30;99.90
18173;DHT22;9211;48.818;9.312;2023-11-21T04:57:35;10.30;99.90
18173;DHT22;9211;48.818;9.312;2023-11-21T05:00:05;10.30;99.90
18173;DHT22;9211;48.818;9.312;2023-11-21T05:02:32;10.30;99.90
18173;DHT22;9211;48.818;9.312;2023-11-21T05:05:00;10.30;99.90
18173;DHT22;9211;48.818;9.312;2023-11-21T05:07:27;9.90;99.90
18173;DHT22;9211;48.818;9.312;2023-11-21T05:09:54;10.30;99.90
18173;DHT22;9211;48.818;9.312;2023-11-21T05:12:22;10.30;99.90
18173;DHT22;9211;48.818;9.312;2023-11-21T05:14:49;10.20;99.90
18173;DHT22;9211;48.818;9.312;2023-11-21T05:17:17;10.30;99.90
18173;DHT22;9211;48.818;9.312;2023-11-21T05:19:44;10.30;99.90
18173;DHT22;9211;48.818;9.312;2023-11-21T05:22:14;10.20;99.90
18173;DHT22;9211;48.818;9.312;2023-11-21T05:24:40;10.20;99.90
18173;DHT22;9211;48.818;9.312;2023-11-21T05:27:07;10.20;99.90
18173;DHT22;9211;48.818;9.312;2023-11-21T05:29:35;10.20;99.90
18173;DHT22;9211;48.818;9.312;2023-11-21T05:32:03;10.60;99.90
18173;DHT22;9211;48.818;9.312;2023-11-21T05:34:32;10.20;99.90
18173;DHT22;9211;48.818;9.312;2023-11-21T05:36:58;10.20;99.90
18173;DHT22;9211;48.818;9.312;2023-11-21T05:39:25;10.20;99.90
18173;DHT22;9211;48.818;9.312;2023-11-21T05:41:53;10.10;99.90
18173;DHT22;9211;48.818;9.312;2023-11-21T05:44:21;10.20;99.90
18173;DHT22;9211;48.818;9.312;2023-11-21T05:46:49;10.20;99.90
18173;DHT22;9211;48.818;9.312;2023-11-21T05:49:16;10.30;99.90
18173;DHT22;9211;48.818;9.312;2023-11-21T05:51:44;10.20;99.90
18173;DHT22;9211;48.818;9.312;2023-11-21T05:54:11;10.20;99.90
18173;DHT22;9211;48.818;9.312;2023-11-21T05:56:38;10.20;99.90
18173;DHT22;9211;48.818;9.312;2023-11-21T05:59:05;10.10;99.90
18173;DHT22;9211;48.818;9.312;2023-11-21T06:01:32;10.20;99.90
18173;DHT22;9211;48.818;9.312;2023-11-21T06:04:00;10.20;99.90
18173;DHT22;9211;48.818;9.312;2023-11-21T06:06:27;10.10;99.90
18173;DHT22;9211;48.818;9.312;2023-11-21T06:08:55;10.20;99.90
18173;DHT22;9211;48.818;9.312;2023-11-21T06:11:22;10.20;99.90
18173;DHT22;9211;48.818;9.312;2023-11-21T06:13:50;10.20;99.90
18173;DHT22;9211;48.818;9.312;2023-11-21T06:16:18;10.10;99.90
18173;DHT22;9211;48.818;9.312;2023-11-21T06:18:46;10.00;99.90
18173;DHT22;9211;48.818;9.312;2023-11-21T06:21:13;10.10;99.90
18173;DHT22;9211;48.818;9.312;2023-11-21T06:23:42;10.10;99.90
18173;DHT22;9211;48.818;9.312;2023-11-21T06:26:10;10.10;99.90
18173;DHT22;9211;48.818;9.312;2023-11-21T06:28:38;10.10;99.90
18173;DHT22;9211;48.818;9.312;2023-11-21T06:31:05;10.00;99.90
18173;DHT22;9211;48.818;9.312;2023-11-21T06:33:33;10.10;99.90
18173;DHT22;9211;48.818;9.312;2023-11-21T06:36:00;10.20;99.90
18173;DHT22;9211;48.818;9.312;2023-11-21T06:38:28;10.20;99.90
18173;DHT22;9211;48.818;9.312;2023-11-21T06:40:55;10.20;99.90
18173;DHT22;9211;48.818;9.312;2023-11-21T06:43:25;10.20;99.90
18173;DHT22;9211;48.818;9.312;2023-11-21T06:45:52;10.80;99.90
18173;DHT22;9211;48.818;9.312;2023-11-21T06:48:20;10.20;99.90
18173;DHT22;9211;48.818;9.312;2023-11-21T06:50:47;10.20;99.90
18173;DHT22;9211;48.818;9.312;2023-11-21T06:53:14;10.20;99.90
18173;DHT22;9211;48.818;9.312;2023-11-21T06:55:41;10.20;99.90
18173;DHT22;9211;48.818;9.312;2023-11-21T06:58:08;10.30;99.90
18173;DHT22;9211;48.818;9.312;2023-11-21T07:00:36;10.20;99.90
18173;DHT22;9211;48.818;9.312;2023-11-21T07:03:03;10.30;99.90
18173;DHT22;9211;48.818;9.312;2023-11-21T07:05:30;10.30;99.90
18173;DHT22;9211;48.818;9.312;2023-11-21T07:07:57;10.30;99.90
18173;DHT22;9211;48.818;9.312;2023-11-21T07:10:30;10.30;99.90
18173;DHT22;9211;48.818;9.312;2023-11-21T07:12:57;10.50;99.90
18173;DHT22;9211;48.818;9.312;2023-11-21T07:15:23;10.30;99.90
18173;DHT22;9211;48.818;9.312;2023-11-21T07:17:53;10.30;99.90
18173;DHT22;9211;48.818;9.312;2023-11-21T07:20:20;10.40;99.90
18173;DHT22;9211;48.818;9.312;2023-11-21T07:22:47;10.40;99.90
18173;DHT22;9211;48.818;9.312;2023-11-21T07:25:14;10.30;99.90
18173;DHT22;9211;48.818;9.312;2023-11-21T07:27:41;10.40;99.90
18173;DHT22;9211;48.818;9.312;2023-11-21T07:30:10;10.40;99.90
18173;DHT22;9211;48.818;9.312;2023-11-21T07:32:38;10.40;99.90
18173;DHT22;9211;48.818;9.312;2023-11-21T07:35:07;10.40;99.90
18173;DHT22;9211;48.818;9.312;2023-11-21T07:37:34;10.40;99.90
18173;DHT22;9211;48.818;9.312;2023-11-21T07:40:01;10.40;99.90
18173;DHT22;9211;48.818;9.312;2023-11-21T07:42:28;10.50;99.90
18173;DHT22;9211;48.818;9.312;2023-11-21T07:44:55;10.50;99.90
18173;DHT22;9211;48.818;9.312;2023-11-21T07:47:22;10.50;99.90
18173;DHT22;9211;48.818;9.312;2023-11-21T07:49:53;10.50;99.90
18173;DHT22;9211;48.818;9.312;2023-11-21T07:52:22;10.60;99.90
18173;DHT22;9211;48.818;9.312;2023-11-21T07:54:49;10.60;99.90
18173;DHT22;9211;48.818;9.312;2023-11-21T07:57:16;11.30;99.90
18173;DHT22;9211;48.818;9.312;2023-11-21T07:59:43;10.60;99.90
18173;DHT22;9211;48.818;9.312;2023-11-21T08:02:10;10.60;99.90
18173;DHT22;9211;48.818;9.312;2023-11-21T08:04:37;11.10;99.90
18173;DHT22;9211;48.818;9.312;2023-11-21T08:07:04;10.70;99.90
18173;DHT22;9211;48.818;9.312;2023-11-21T08:09:32;10.60;99.90
18173;DHT22;9211;48.818;9.312;2023-11-21T08:12:00;10.70;99.90
18173;DHT22;9211;48.818;9.312;2023-11-21T08:14:28;10.70;99.90
18173;DHT22;9211;48.818;9.312;2023-11-21T08:16:55;10.60;99.90
18173;DHT22;9211;48.818;9.312;2023-11-21T08:19:23;11.10;99.90
18173;DHT22;9211;48.818;9.312;2023-11-21T08:21:51;11.00;99.90
18173;DHT22;9211;48.818;9.312;2023-11-21T08:24:20;11.40;99.90
18173;DHT22;9211;48.818;9.312;2023-11-21T08:26:49;10.90;99.90
18173;DHT22;9211;48.818;9.312;2023-11-21T08:29:16;10.90;99.90
18173;DHT22;9211;48.818;9.312;2023-11-21T08:31:44;11.70;99.90
18173;DHT22;9211;48.818;9.312;2023-11-21T08:34:12;10.90;99.90
18173;DHT22;9211;48.818;9.312;2023-11-21T08:36:41;10.90;99.90
18173;DHT22;9211;48.818;9.312;2023-11-21T08:39:09;11.00;99.90
18173;DHT22;9211;48.818;9.312;2023-11-21T08:41:36;11.00;99.90
18173;DHT22;9211;48.818;9.312;2023-11-21T08:44:05;11.10;99.90
18173;DHT22;9211;48.818;9.312;2023-11-21T08:46:33;11.10;99.90
18173;DHT22;9211;48.818;9.312;2023-11-21T08:49:02;11.10;99.90
18173;DHT22;9211;48.818;9.312;2023-11-21T08:51:29;11.20;99.90
18173;DHT22;9211;48.818;9.312;2023-11-21T08:53:57;11.20;99.90
18173;DHT22;9211;48.818;9.312;2023-11-21T08:56:26;11.30;99.90
18173;DHT22;9211;48.818;9.312;2023-11-21T08:58:53;11.30;99.90
18173;DHT22;9211;48.818;9.312;2023-11-21T09:01:22;11.20;99.90
18173;DHT22;9211;48.818;9.312;2023-11-21T09:03:49;11.30;99.90
18173;DHT22;9211;48.818;9.312;2023-11-21T09:06:16;11.30;99.90
18173;DHT22;9211;48.818;9.312;2023-11-21T09:08:43;11.20;99.90
18173;DHT22;9211;48.818;9.312;2023-11-21T09:11:10;11.20;99.90
18173;DHT22;9211;48.818;9.312;2023-11-21T09:13:37;11.20;99.90
18173;DHT22;9211;48.818;9.312;2023-11-21T09:16:04;11.30;99.90
18173;DHT22;9211;48.818;9.312;2023-11-21T09:18:32;11.30;99.90
18173;DHT22;9211;48.818;9.312;2023-11-21T09:21:00;11.30;99.90
18173;DHT22;9211;48.818;9.312;2023-11-21T09:23:27;11.40;99.90
18173;DHT22;9211;48.818;9.312;2023-11-21T09:25:54;11.40;99.90
18173;DHT22;9211;48.818;9.312;2023-11-21T09:28:22;11.50;99.90
18173;DHT22;9211;48.818;9.312;2023-11-21T09:30:49;11.60;99.90
18173;DHT22;9211;48.818;9.312;2023-11-21T09:33:16;11.50;99.90
18173;DHT22;9211;48.818;9.312;2023-11-21T09:35:44;11.70;99.90
18173;DHT22;9211;48.818;9.312;2023-11-21T09:38:12;12.20;99.90
18173;DHT22;9211;48.818;9.312;2023-11-21T09:40:39;11.80;99.90
18173;DHT22;9211;48.818;9.312;2023-11-21T09:43:07;11.90;99.90
18173;DHT22;9211;48.818;9.312;2023-11-21T09:45:45;12.60;99.90
18173;DHT22;9211;48.818;9.312;2023-11-21T09:48:12;12.50;99.90
18173;DHT22;9211;48.818;9.312;2023-11-21T09:50:42;12.40;99.90
18173;DHT22;9211;48.818;9.312;2023-11-21T09:53:13;12.40;99.90
18173;DHT22;9211;48.818;9.312;2023-11-21T09:55:45;12.50;99.90
18173;DHT22;9211;48.818;9.312;2023-11-21T09:58:13;12.50;99.90
18173;DHT22;9211;48.818;9.312;2023-11-21T10:00:42;13.20;99.90
18173;DHT22;9211;48.818;9.312;2023-11-21T10:03:12;12.30;99.90
18173;DHT22;9211;48.818;9.312;2023-11-21T10:05:41;12.30;99.90
18173;DHT22;9211;48.818;9.312;2023-11-21T10:08:10;12.20;99.90
18173;DHT22;9211;48.818;9.312;2023-11-21T10:10:38;12.10;99.90
18173;DHT22;9211;48.818;9.312;2023-11-21T10:13:11;12.20;99.90
18173;DHT22;9211;48.818;9.312;2023-11-21T10:15:38;12.00;99.90
18173;DHT22;9211;48.818;9.312;2023-11-21T10:18:11;12.10;99.90
18173;DHT22;9211;48.818;9.312;2023-11-21T10:20:41;12.50;99.90
18173;DHT22;9211;48.818;9.312;2023-11-21T10:23:11;12.10;99.90
18173;DHT22;9211;48.818;9.312;2023-11-21T10:25:38;12.10;99.90
18173;DHT22;9211;48.818;9.312;2023-11-21T10:28:05;12.00;99.90
18173;DHT22;9211;48.818;9.312;2023-11-21T10:30:33;12.10;99.90
18173;DHT22;9211;48.818;9.312;2023-11-21T10:33:03;12.10;99.90
18173;DHT22;9211;48.818;9.312;2023-11-21T10:35:54;12.10;99.90
18173;DHT22;9211;48.818;9.312;2023-11-21T10:38:22;12.30;99.90
18173;DHT22;9211;48.818;9.312;2023-11-21T10:40:52;12.30;99.90
18173;DHT22;9211;48.818;9.312;2023-11-21T10:43:25;12.40;99.90
18173;DHT22;9211;48.818;9.312;2023-11-21T10:45:52;12.30;99.90
18173;DHT22;9211;48.818;9.312;2023-11-21T10:48:20;13.60;99.90
18173;DHT22;9211;48.818;9.312;2023-11-21T10:50:48;12.30;99.90
18173;DHT22;9211;48.818;9.312;2023-11-21T10:53:15;12.30;99.90
18173;DHT22;9211;48.818;9.312;2023-11-21T10:55:44;12.30;99.90
18173;DHT22;9211;48.818;9.312;2023-11-21T10:58:13;12.60;99.90
18173;DHT22;9211;48.818;9.312;2023-11-21T11:00:41;11.90;99.90
18173;DHT22;9211;48.818;9.312;2023-11-21T11:03:09;12.40;99.90
18173;DHT22;9211;48.818;9.312;2023-11-21T11:05:41;11.70;99.90
18173;DHT22;9211;48.818;9.312;2023-11-21T11:08:12;11.80;99.90
18173;DHT22;9211;48.818;9.312;2023-11-21T11:10:45;11.70;99.90
18173;DHT22;9211;48.818;9.312;2023-11-21T11:13:13;11.90;99.90
18173;DHT22;9211;48.818;9.312;2023-11-21T11:15:42;11.90;99.90
18173;DHT22;9211;48.818;9.312;2023-11-21T11:18:10;11.70;99.90
18173;DHT22;9211;48.818;9.312;2023-11-21T11:20:38;11.90;99.90
18173;DHT22;9211;48.818;9.312;2023-11-21T11:23:21;11.70;99.90
18173;DHT22;9211;48.818;9.312;2023-11-21T11:26:02;11.70;99.90
18173;DHT22;9211;48.818;9.312;2023-11-21T11:28:39;11.80;99.90
18173;DHT22;9211;48.818;9.312;2023-11-21T11:31:13;11.80;99.90
18173;DHT22;9211;48.818;9.312;2023-11-21T11:33:47;12.00;99.90
18173;DHT22;9211;48.818;9.312;2023-11-21T11:36:21;12.20;99.90
18173;DHT22;9211;48.818;9.312;2023-11-21T11:38:50;12.20;99.90
18173;DHT22;9211;48.818;9.312;2023-11-21T11:41:26;12.40;99.90
18173;DHT22;9211;48.818;9.312;2023-11-21T11:43:53;12.40;99.90
18173;DHT22;9211;48.818;9.312;2023-11-21T11:46:20;12.30;99.90
18173;DHT22;9211;48.818;9.312;2023-11-21T11:49:07;12.30;99.90
18173;DHT22;9211;48.818;9.312;2023-11-21T11:51:34;12.20;99.90
18173;DHT22;9211;48.818;9.312;2023-11-21T11:54:02;12.80;99.90
18173;DHT22;9211;48.818;9.312;2023-11-21T11:56:31;12.30;99.90
18173;DHT22;9211;48.818;9.312;2023-11-21T11:59:01;12.30;99.90
18173;DHT22;9211;48.818;9.312;2023-11-21T12:01:30;12.20;99.90
18173;DHT22;9211;48.818;9.312;2023-11-21T12:04:23;12.40;99.90
18173;DHT22;9211;48.818;9.312;2023-11-21T12:06:59;12.20;99.90
18173;DHT22;9211;48.818;9.312;2023-11-21T12:09:29;12.20;99.90
18173;DHT22;9211;48.818;9.312;2023-11-21T12:11:59;12.70;99.90
18173;DHT22;9211;48.818;9.312;2023-11-21T12:14:26;12.90;99.90
18173;DHT22;9211;48.818;9.312;2023-11-21T12:16:54;12.30;99.90
18173;DHT22;9211;48.818;9.312;2023-11-21T12:19:21;12.20;99.90
18173;DHT22;9211;48.818;9.312;2023-11-21T12:21:49;12.40;99.90
18173;DHT22;9211;48.818;9.312;2023-11-21T12:24:18;12.10;99.90
18173;DHT22;9211;48.818;9.312;2023-11-21T12:26:44;12.20;99.90
18173;DHT22;9211;48.818;9.312;2023-11-21T12:29:13;12.20;99.90
18173;DHT22;9211;48.818;9.312;2023-11-21T12:31:42;12.20;99.90
18173;DHT22;9211;48.818;9.312;2023-11-21T12:34:09;12.30;99.90
18173;DHT22;9211;48.818;9.312;2023-11-21T12:36:37;12.30;99.90
18173;DHT22;9211;48.818;9.312;2023-11-21T12:39:05;12.40;99.90
18173;DHT22;9211;48.818;9.312;2023-11-21T12:41:35;14.00;99.90
18173;DHT22;9211;48.818;9.312;2023-11-21T12:44:02;12.30;99.90
18173;DHT22;9211;48.818;9.312;2023-11-21T12:46:30;12.40;99.90
18173;DHT22;9211;48.818;9.312;2023-11-21T12:49:00;12.50;99.90
18173;DHT22;9211;48.818;9.312;2023-11-21T12:51:27;12.30;99.90
18173;DHT22;9211;48.818;9.312;2023-11-21T12:53:55;12.30;99.90
18173;DHT22;9211;48.818;9.312;2023-11-21T12:56:22;12.30;99.90
18173;DHT22;9211;48.818;9.312;2023-11-21T12:58:50;12.20;99.90
18173;DHT22;9211;48.818;9.312;2023-11-21T13:01:20;13.50;99.90
18173;DHT22;9211;48.818;9.312;2023-11-21T13:03:50;12.20;99.90
18173;DHT22;9211;48.818;9.312;2023-11-21T13:06:18;12.30;99.90
18173;DHT22;9211;48.818;9.312;2023-11-21T13:08:50;13.40;99.90
18173;DHT22;9211;48.818;9.312;2023-11-21T13:11:17;13.00;99.90
18173;DHT22;9211;48.818;9.312;2023-11-21T13:13:44;12.60;99.90
18173;DHT22;9211;48.818;9.312;2023-11-21T13:16:11;12.90;99.90
18173;DHT22;9211;48.818;9.312;2023-11-21T13:18:38;12.70;99.90
18173;DHT22;9211;48.818;9.312;2023-11-21T13:21:09;12.70;99.90
18173;DHT22;9211;48.818;9.312;2023-11-21T13:23:39;12.70;99.90
18173;DHT22;9211;48.818;9.312;2023-11-21T13:26:07;14.60;99.90
18173;DHT22;9211;48.818;9.312;2023-11-21T13:28:35;14.40;99.90
18173;DHT22;9211;48.818;9.312;2023-11-21T13:31:03;12.80;99.90
18173;DHT22;9211;48.818;9.312;2023-11-21T13:33:35;12.60;99.90
18173;DHT22;9211;48.818;9.312;2023-11-21T13:36:05;14.40;99.90
18173;DHT22;9211;48.818;9.312;2023-11-21T13:38:34;12.50;99.90
18173;DHT22;9211;48.818;9.312;2023-11-21T13:41:03;12.30;99.90
18173;DHT22;9211;48.818;9.312;2023-11-21T13:43:33;12.20;99.90
18173;DHT22;9211;48.818;9.312;2023-11-21T13:46:00;12.30;99.90
18173;DHT22;9211;48.818;9.312;2023-11-21T13:48:34;12.70;99.90
18173;DHT22;9211;48.818;9.312;2023-11-21T13:51:08;12.30;99.90
18173;DHT22;9211;48.818;9.312;2023-11-21T13:53:43;12.60;99.90
18173;DHT22;9211;48.818;9.312;2023-11-21T13:56:11;12.70;99.90
18173;DHT22;9211;48.818;9.312;2023-11-21T13:58:42;12.30;99.90
18173;DHT22;9211;48.818;9.312;2023-11-21T14:01:13;12.20;99.90
18173;DHT22;9211;48.818;9.312;2023-11-21T14:04:02;12.30;99.90
18173;DHT22;9211;48.818;9.312;2023-11-21T14:06:37;12.20;99.90
18173;DHT22;9211;48.818;9.312;2023-11-21T14:09:15;12.10;99.90
18173;DHT22;9211;48.818;9.312;2023-11-21T14:11:49;12.10;99.90
18173;DHT22;9211;48.818;9.312;2023-11-21T14:14:17;12.40;99.90
18173;DHT22;9211;48.818;9.312;2023-11-21T14:16:44;12.30;99.90
18173;DHT22;9211;48.818;9.312;2023-11-21T14:19:11;12.10;99.90
18173;DHT22;9211;48.818;9.312;2023-11-21T14:21:42;12.30;99.90
18173;DHT22;9211;48.818;9.312;2023-11-21T14:24:10;12.10;99.90
18173;DHT22;9211;48.818;9.312;2023-11-21T14:26:40;12.50;99.90
18173;DHT22;9211;48.818;9.312;2023-11-21T14:29:08;12.20;99.90
18173;DHT22;9211;48.818;9.312;2023-11-21T14:31:38;12.60;99.90
18173;DHT22;9211;48.818;9.312;2023-11-21T14:34:05;12.20;99.90
18173;DHT22;9211;48.818;9.312;2023-11-21T14:36:33;12.40;99.90
18173;DHT22;9211;48.818;9.312;2023-11-21T14:39:00;12.10;99.90
18173;DHT22;9211;48.818;9.312;2023-11-21T14:41:27;12.10;99.90
18173;DHT22;9211;48.818;9.312;2023-11-21T14:43:56;12.20;99.90
18173;DHT22;9211;48.818;9.312;2023-11-21T14:46:25;12.00;99.90
18173;DHT22;9211;48.818;9.312;2023-11-21T14:48:52;11.90;99.90
18173;DHT22;9211;48.818;9.312;2023-11-21T14:51:35;11.90;99.90
18173;DHT22;9211;48.818;9.312;2023-11-21T14:54:21;12.30;99.90
18173;DHT22;9211;48.818;9.312;2023-11-21T14:57:04;12.30;99.90
18173;DHT22;9211;48.818;9.312;2023-11-21T14:59:34;11.90;99.90
18173;DHT22;9211;48.818;9.312;2023-11-21T15:02:01;12.00;99.90
18173;DHT22;9211;48.818;9.312;2023-11-21T15:04:41;12.00;99.90
18173;DHT22;9211;48.818;9.312;2023-11-21T15:07:08;11.90;99.90
18173;DHT22;9211;48.818;9.312;2023-11-21T15:09:34;11.80;99.90
18173;DHT22;9211;48.818;9.312;2023-11-21T15:12:05;11.90;99.90
18173;DHT22;9211;48.818;9.312;2023-11-21T15:14:42;11.80;99.90
18173;DHT22;9211;48.818;9.312;2023-11-21T15:17:08;11.80;99.90
18173;DHT22;9211;48.818;9.312;2023-11-21T15:19:36;11.90;99.90
18173;DHT22;9211;48.818;9.312;2023-11-21T15:22:04;11.80;99.90
18173;DHT22;9211;48.818;9.312;2023-11-21T15:24:32;11.80;99.90
18173;DHT22;9211;48.818;9.312;2023-11-21T15:26:59;11.70;99.90
18173;DHT22;9211;48.818;9.312;2023-11-21T15:29:28;12.20;99.90
18173;DHT22;9211;48.818;9.312;2023-11-21T15:31:56;11.70;99.90
18173;DHT22;9211;48.818;9.312;2023-11-21T15:34:23;11.80;99.90
18173;DHT22;9211;48.818;9.312;2023-11-21T15:36:52;11.70;99.90
18173;DHT22;9211;48.818;9.312;2023-11-21T15:39:20;12.00;99.90
18173;DHT22;9211;48.818;9.312;2023-11-21T15:41:51;11.50;99.90
18173;DHT22;9211;48.818;9.312;2023-11-21T15:44:18;11.40;99.90
18173;DHT22;9211;48.818;9.312;2023-11-21T15:46:45;11.60;99.90
18173;DHT22;9211;48.818;9.312;2023-11-21T15:49:15;11.60;99.90
18173;DHT22;9211;48.818;9.312;2023-11-21T15:51:44;11.60;99.90
18173;DHT22;9211;48.818;9.312;2023-11-21T15:54:13;11.50;99.90